createdAt,value
2016-07-19T16:54:30.913Z,0
2016-07-19T16:55:30.928Z,0
2016-07-19T16:56:30.230Z,0
2016-07-19T16:57:42.119Z,0
2016-07-19T16:58:41.423Z,0
2016-07-19T16:59:42.154Z,0
2016-07-19T17:00:42.174Z,0
2016-07-19T17:01:42.227Z,60.39
2016-07-19T17:02:41.496Z,60.58
2016-07-19T17:03:42.231Z,61.45
2016-07-19T17:05:41.122Z,62.29
2016-07-19T17:06:40.419Z,63.06
2016-07-19T17:07:40.448Z,62.74
2016-07-19T17:08:40.464Z,63.6
2016-07-19T17:09:40.485Z,62.16
2016-07-19T17:10:40.506Z,62.19
2016-07-19T17:11:40.525Z,62.29
2016-07-19T17:12:41.264Z,61.9
2016-07-19T17:13:40.567Z,61.9
2016-07-19T17:14:40.588Z,61.9
2016-07-19T17:15:40.608Z,62
2016-07-19T17:16:40.631Z,61.8
2016-07-19T17:17:41.366Z,62
2016-07-19T17:18:40.668Z,61.8
2016-07-19T17:19:40.694Z,61.61
2016-07-19T17:20:40.721Z,62
2016-07-19T17:21:40.737Z,61.65
2016-07-19T17:22:40.759Z,62.03
2016-07-19T17:23:41.502Z,61.8
2016-07-19T17:24:40.798Z,61.83
2016-07-19T17:25:40.821Z,62
2016-07-19T17:26:40.843Z,61.8
2016-07-19T17:27:40.871Z,61.74
2016-07-19T17:28:40.888Z,62
2016-07-19T17:29:40.915Z,61.8
2016-07-19T17:30:40.943Z,62
2016-07-19T17:31:41.663Z,62
2016-07-19T17:32:40.969Z,62
2016-07-19T17:33:40.996Z,61.71
2016-07-19T17:34:41.022Z,61.52
2016-07-19T17:35:41.035Z,61.74
2016-07-19T17:36:41.785Z,62
2016-07-19T17:37:41.798Z,62
2016-07-19T17:38:41.103Z,61.71
2016-07-19T17:39:41.126Z,62
2016-07-19T17:40:41.145Z,61.8
2016-07-19T17:41:41.166Z,61.8
2016-07-19T17:42:41.906Z,61.8
2016-07-19T17:43:41.926Z,62
2016-07-19T17:44:41.232Z,61.9
2016-07-19T17:45:41.257Z,61.71
2016-07-19T17:46:41.274Z,61.71
2016-07-19T17:47:41.295Z,61.71
2016-07-19T17:48:41.316Z,61.71
2016-07-19T17:49:41.339Z,61.9
2016-07-19T17:50:42.076Z,61.32
2016-07-19T17:51:42.104Z,61.52
2016-07-19T17:52:41.401Z,61.35
2016-07-19T17:53:42.139Z,61.32
2016-07-19T17:54:42.163Z,61.45
2016-07-19T17:55:42.187Z,61.9
2016-07-19T17:56:41.495Z,61.25
2016-07-19T17:57:41.514Z,61.25
2016-07-19T17:58:41.531Z,61.9
2016-07-19T17:59:42.267Z,61.45
2016-07-19T18:00:41.574Z,61.42
2016-07-19T18:01:41.596Z,61.9
2016-07-19T18:02:41.620Z,61.42
2016-07-19T18:03:41.642Z,61.45
2016-07-19T18:04:41.663Z,61.9
2016-07-19T18:05:42.400Z,61.65
2016-07-19T18:06:41.703Z,61.65
2016-07-19T18:07:41.723Z,61.9
2016-07-19T18:08:42.463Z,61.9
2016-07-19T18:09:41.770Z,62
2016-07-19T18:10:41.796Z,61.22
2016-07-19T18:11:41.810Z,61.42
2016-07-19T18:12:41.832Z,61.42
2016-07-19T18:13:41.856Z,61.9
2016-07-19T18:14:41.878Z,61.8
2016-07-19T18:15:41.896Z,61.9
2016-07-19T18:16:42.636Z,61.8
2016-07-19T18:17:41.942Z,61.8
2016-07-19T18:18:42.677Z,61.71
2016-07-19T18:19:42.698Z,61.61
2016-07-19T18:20:42.005Z,61.71
2016-07-19T18:21:42.031Z,61.71
2016-07-19T18:22:42.046Z,62
2016-07-19T18:23:42.069Z,61.71
2016-07-19T18:24:42.093Z,61.61
2016-07-19T18:25:42.113Z,61.83
2016-07-19T18:26:42.134Z,61.71
2016-07-19T18:27:42.154Z,61.71
2016-07-19T18:28:42.181Z,61.9
2016-07-19T18:29:42.195Z,61.8
2016-07-19T18:30:42.219Z,61.8
2016-07-19T18:31:42.243Z,61.61
2016-07-19T18:32:42.268Z,61.83
2016-07-19T18:33:42.284Z,61.61
2016-07-19T18:34:42.304Z,61.71
2016-07-19T18:35:42.328Z,61.65
2016-07-19T18:36:42.347Z,62
2016-07-19T18:37:42.371Z,61.71
2016-07-19T18:38:42.389Z,61.71
2016-07-19T18:39:42.416Z,61.71
2016-07-19T18:40:42.445Z,62.09
2016-07-19T18:41:42.454Z,62
2016-07-19T18:42:42.478Z,61.9
2016-07-19T18:43:42.503Z,61.9
2016-07-19T18:44:42.523Z,61.71
2016-07-19T18:45:43.258Z,62
2016-07-19T18:46:43.290Z,61.8
2016-07-19T18:47:42.587Z,62
2016-07-19T18:48:42.611Z,62.09
2016-07-19T18:49:42.632Z,61.9
2016-07-19T18:50:42.651Z,62.09
2016-07-19T18:51:42.673Z,61.8
2016-07-19T18:52:43.409Z,62.19
2016-07-19T18:53:42.716Z,62
2016-07-19T18:54:42.736Z,62
2016-07-19T18:55:43.476Z,62.09
2016-07-19T18:56:42.779Z,61.8
2016-07-19T18:57:42.805Z,61.83
2016-07-19T18:58:43.540Z,61.52
2016-07-19T18:59:43.560Z,62.09
2016-07-19T19:00:42.869Z,61.71
2016-07-19T19:01:43.607Z,61.8
2016-07-19T19:02:42.908Z,62.09
2016-07-19T19:03:43.648Z,61.71
2016-07-19T19:04:42.952Z,61.9
2016-07-19T19:05:42.975Z,61.61
2016-07-19T19:06:42.997Z,61.61
2016-07-19T19:07:43.019Z,61.8
2016-07-19T19:08:43.037Z,61.71
2016-07-19T19:09:43.062Z,62
2016-07-19T19:10:43.081Z,61.71
2016-07-19T19:11:43.100Z,61.8
2016-07-19T19:12:43.852Z,61.9
2016-07-19T19:13:43.147Z,61.8
2016-07-19T19:14:43.170Z,62
2016-07-19T19:15:43.907Z,62
2016-07-19T19:16:43.210Z,62
2016-07-19T19:17:43.230Z,61.9
2016-07-19T19:18:43.258Z,62.09
2016-07-19T19:19:43.278Z,61.9
2016-07-19T19:20:43.297Z,62
2016-07-19T19:21:43.321Z,62.09
2016-07-19T19:22:43.341Z,61.8
2016-07-19T19:23:43.357Z,62.09
2016-07-19T19:24:43.384Z,61.8
2016-07-19T19:25:43.406Z,61.8
2016-07-19T19:26:43.425Z,62
2016-07-19T19:27:43.446Z,61.61
2016-07-19T19:28:43.471Z,61.8
2016-07-19T19:29:43.493Z,61.8
2016-07-19T19:30:43.513Z,61.8
2016-07-19T19:31:43.531Z,61.9
2016-07-19T19:32:43.556Z,61.71
2016-07-19T19:33:43.579Z,62.09
2016-07-19T19:34:43.597Z,62.09
2016-07-19T19:35:43.619Z,61.8
2016-07-19T19:36:43.649Z,62
2016-07-19T19:37:43.665Z,61.9
2016-07-19T19:38:43.680Z,61.9
2016-07-19T19:39:43.706Z,61.9
2016-07-19T19:40:44.444Z,61.71
2016-07-19T19:41:44.466Z,61.8
2016-07-19T19:42:44.492Z,62
2016-07-19T19:43:43.792Z,61.61
2016-07-19T19:44:43.813Z,61.9
2016-07-19T19:45:44.553Z,62
2016-07-19T19:46:43.856Z,61.65
2016-07-19T19:47:43.878Z,62.09
2016-07-19T19:48:43.901Z,61.61
2016-07-19T19:49:43.920Z,61.71
2016-07-19T19:50:43.942Z,62
2016-07-19T19:51:44.680Z,61.65
2016-07-19T19:52:44.700Z,61.61
2016-07-19T19:53:44.006Z,62.03
2016-07-19T19:54:44.029Z,62
2016-07-19T19:55:44.052Z,62.12
2016-07-19T19:56:44.071Z,62
2016-07-19T19:57:44.808Z,62.19
2016-07-19T19:58:44.114Z,61.9
2016-07-19T19:59:44.856Z,62.09
2016-07-19T20:00:44.158Z,62
2016-07-19T20:01:44.178Z,62
2016-07-19T20:02:44.201Z,62.32
2016-07-19T20:03:44.939Z,61.71
2016-07-19T20:04:44.245Z,61.93
2016-07-19T20:05:44.983Z,61.9
2016-07-19T20:06:44.288Z,62
2016-07-19T20:07:44.309Z,61.83
2016-07-19T20:08:44.340Z,62.12
2016-07-19T20:09:44.350Z,62.12
2016-07-19T20:10:44.372Z,61.71
2016-07-19T20:11:44.397Z,61.93
2016-07-19T20:12:44.415Z,61.8
2016-07-19T20:13:44.438Z,61.93
2016-07-19T20:14:44.459Z,61.71
2016-07-19T20:15:44.483Z,61.8
2016-07-19T20:16:44.512Z,61.8
2016-07-19T20:17:44.525Z,62.03
2016-07-19T20:18:44.548Z,62.09
2016-07-19T20:19:44.567Z,62.03
2016-07-19T20:20:44.587Z,62
2016-07-19T20:21:44.610Z,61.93
2016-07-19T20:22:44.632Z,62.09
2016-07-19T20:23:44.661Z,61.93
2016-07-19T20:24:45.392Z,61.8
2016-07-19T20:25:44.696Z,62.19
2016-07-19T20:26:44.716Z,62.32
2016-07-19T20:27:44.738Z,61.8
2016-07-19T20:28:45.478Z,61.8
2016-07-19T20:29:45.501Z,61.93
2016-07-19T20:30:44.804Z,62.32
2016-07-19T20:31:44.826Z,62.19
2016-07-19T20:32:44.849Z,61.93
2016-07-19T20:33:44.868Z,61.93
2016-07-19T20:34:44.891Z,61.71
2016-07-19T20:35:44.911Z,62.03
2016-07-19T20:36:44.933Z,61.93
2016-07-19T20:37:44.953Z,62.22
2016-07-19T20:38:44.979Z,61.93
2016-07-19T20:39:45.719Z,61.8
2016-07-19T20:40:45.021Z,61.71
2016-07-19T20:41:45.045Z,62
2016-07-19T20:42:45.776Z,61.71
2016-07-19T20:43:45.084Z,61.74
2016-07-19T20:44:45.820Z,61.8
2016-07-19T20:45:45.128Z,62.09
2016-07-19T20:46:45.869Z,61.74
2016-07-19T20:47:45.169Z,61.93
2016-07-19T20:48:45.189Z,62.41
2016-07-19T20:49:45.213Z,61.71
2016-07-19T20:50:45.234Z,62.29
2016-07-19T20:51:45.254Z,61.74
2016-07-19T20:52:45.281Z,62.09
2016-07-19T20:53:46.019Z,61.71
2016-07-19T20:54:45.319Z,61.55
2016-07-19T20:55:46.055Z,61.83
2016-07-19T20:56:46.080Z,61.83
2016-07-19T20:57:45.383Z,61.8
2016-07-19T20:58:45.407Z,61.65
2016-07-19T20:59:45.430Z,61.65
2016-07-19T21:00:45.451Z,61.9
2016-07-19T21:01:45.468Z,62
2016-07-19T21:02:45.493Z,62.09
2016-07-19T21:03:45.514Z,61.52
2016-07-19T21:04:45.536Z,61.71
2016-07-19T21:05:45.555Z,61.65
2016-07-19T21:06:45.584Z,61.61
2016-07-19T21:07:46.316Z,62.12
2016-07-19T21:08:45.622Z,61.65
2016-07-19T21:09:45.642Z,62.03
2016-07-19T21:10:46.381Z,61.61
2016-07-19T21:11:46.403Z,61.83
2016-07-19T21:12:45.706Z,61.83
2016-07-19T21:13:45.729Z,61.83
2016-07-19T21:14:45.748Z,62
2016-07-19T21:15:45.772Z,61.74
2016-07-19T21:16:45.792Z,61.83
2016-07-19T21:17:45.820Z,61.71
2016-07-19T21:18:45.834Z,61.71
2016-07-19T21:19:45.860Z,61.83
2016-07-19T21:20:46.593Z,61.83
2016-07-19T21:21:45.899Z,61.83
2016-07-19T21:22:45.921Z,61.8
2016-07-19T21:23:45.939Z,61.71
2016-07-19T21:24:46.682Z,61.93
2016-07-19T21:25:46.703Z,62.48
2016-07-19T21:26:46.007Z,62.19
2016-07-19T21:27:46.027Z,62.38
2016-07-19T21:28:46.763Z,62.57
2016-07-19T21:29:46.069Z,62.87
2016-07-19T21:30:46.809Z,62.67
2016-07-19T21:31:46.112Z,62.9
2016-07-19T21:32:46.132Z,62.77
2016-07-19T21:33:46.162Z,62.77
2016-07-19T21:34:46.179Z,62.57
2016-07-19T21:35:46.197Z,62.57
2016-07-19T21:36:46.223Z,62.77
2016-07-19T21:37:46.242Z,62.38
2016-07-19T21:38:46.265Z,62.32
2016-07-19T21:39:47.005Z,62.32
2016-07-19T21:40:46.304Z,62.12
2016-07-19T21:41:47.044Z,62.51
2016-07-19T21:42:47.065Z,62.32
2016-07-19T21:43:46.369Z,62.6
2016-07-19T21:44:46.393Z,62.77
2016-07-19T21:45:46.412Z,62.9
2016-07-19T21:46:47.152Z,62.7
2016-07-19T21:47:46.454Z,62.6
2016-07-19T21:48:46.477Z,62.7
2016-07-19T21:49:47.216Z,62.67
2016-07-19T21:50:47.237Z,62.6
2016-07-19T21:51:46.546Z,62.29
2016-07-19T21:52:46.561Z,62.8
2016-07-19T21:53:46.584Z,62.29
2016-07-19T21:54:46.606Z,62.12
2016-07-19T21:55:46.627Z,62.77
2016-07-19T21:56:47.366Z,62.6
2016-07-19T21:57:46.673Z,62.96
2016-07-19T21:58:46.695Z,62.8
2016-07-19T21:59:46.711Z,62.67
2016-07-19T22:00:47.452Z,62.9
2016-07-19T22:01:46.758Z,63.09
2016-07-19T22:02:46.780Z,62.87
2016-07-19T22:03:46.803Z,62.9
2016-07-19T22:04:46.822Z,62.9
2016-07-19T22:05:46.842Z,62.9
2016-07-19T22:06:47.580Z,63.18
2016-07-19T22:07:46.884Z,62.77
2016-07-19T22:08:46.907Z,62.96
2016-07-19T22:09:46.925Z,63.28
2016-07-19T22:10:47.667Z,62.8
2016-07-19T22:11:46.969Z,62.99
2016-07-19T22:12:46.992Z,62.9
2016-07-19T22:13:47.012Z,62.67
2016-07-19T22:14:47.046Z,62.9
2016-07-19T22:15:47.055Z,63.25
2016-07-19T22:16:47.073Z,63.06
2016-07-19T22:17:47.110Z,62.7
2016-07-19T22:18:47.123Z,62.77
2016-07-19T22:19:47.866Z,63.06
2016-07-19T22:20:47.171Z,62.87
2016-07-19T22:21:47.185Z,63.09
2016-07-19T22:22:47.206Z,63.09
2016-07-19T22:23:47.228Z,62.6
2016-07-19T22:24:47.248Z,62.96
2016-07-19T22:25:47.270Z,62.8
2016-07-19T22:26:48.012Z,62.7
2016-07-19T22:27:47.311Z,62.7
2016-07-19T22:28:48.052Z,62.19
2016-07-19T22:29:47.355Z,62.6
2016-07-19T22:30:47.378Z,62.6
2016-07-19T22:31:47.399Z,62.48
2016-07-19T22:32:47.421Z,62.67
2016-07-19T22:33:47.440Z,62.8
2016-07-19T22:34:47.462Z,62.22
2016-07-19T22:35:47.482Z,62.8
2016-07-19T22:36:47.506Z,62.7
2016-07-19T22:37:47.526Z,62.9
2016-07-19T22:38:47.549Z,62.9
2016-07-19T22:39:48.285Z,62.9
2016-07-19T22:40:48.308Z,62.51
2016-07-19T22:41:48.327Z,62.22
2016-07-19T22:42:47.633Z,62.6
2016-07-19T22:43:47.653Z,62.7
2016-07-19T22:44:47.676Z,62.67
2016-07-19T22:45:47.693Z,62.51
2016-07-19T22:46:47.720Z,62.7
2016-07-19T22:47:48.456Z,62.7
2016-07-19T22:48:48.475Z,62.51
2016-07-19T22:49:48.501Z,62.6
2016-07-19T22:50:48.523Z,62.7
2016-07-19T22:51:48.542Z,62.51
2016-07-19T22:52:47.845Z,62.8
2016-07-19T22:53:47.870Z,62.8
2016-07-19T22:54:47.888Z,62.7
2016-07-19T22:55:48.629Z,62.6
2016-07-19T22:56:47.929Z,62.48
2016-07-19T22:57:47.952Z,62.12
2016-07-19T22:58:47.975Z,62.22
2016-07-19T22:59:48.711Z,62.09
2016-07-19T23:00:48.020Z,62.38
2016-07-19T23:01:48.040Z,62.87
2016-07-19T23:02:48.060Z,62.7
2016-07-19T23:03:48.083Z,62.32
2016-07-19T23:04:48.102Z,62.8
2016-07-19T23:05:48.123Z,62.67
2016-07-19T23:06:48.146Z,62.48
2016-07-19T23:07:48.170Z,62.8
2016-07-19T23:08:48.194Z,62.8
2016-07-19T23:09:48.209Z,62.6
2016-07-19T23:10:48.231Z,62.57
2016-07-19T23:11:48.250Z,62.8
2016-07-19T23:12:48.272Z,62.9
2016-07-19T23:13:48.297Z,62.9
2016-07-19T23:14:49.032Z,62.77
2016-07-19T23:15:48.335Z,62.9
2016-07-19T23:16:48.360Z,62.57
2016-07-19T23:17:48.380Z,62.67
2016-07-19T23:18:48.400Z,62.6
2016-07-19T23:19:48.422Z,62.8
2016-07-19T23:20:48.447Z,62.6
2016-07-19T23:21:48.463Z,62.6
2016-07-19T23:22:48.485Z,62.7
2016-07-19T23:23:48.510Z,62.41
2016-07-19T23:24:48.532Z,62.57
2016-07-19T23:25:48.554Z,62.38
2016-07-19T23:26:48.571Z,62.7
2016-07-19T23:27:48.595Z,62
2016-07-19T23:28:48.614Z,62.51
2016-07-19T23:29:49.354Z,62.8
2016-07-19T23:30:48.662Z,62.7
2016-07-19T23:31:48.676Z,62.8
2016-07-19T23:32:49.416Z,62.67
2016-07-19T23:33:49.440Z,62.32
2016-07-19T23:34:48.742Z,62.41
2016-07-19T23:35:49.478Z,62.32
2016-07-19T23:36:48.788Z,62.29
2016-07-19T23:37:48.806Z,62.9
2016-07-19T23:38:49.543Z,62.32
2016-07-19T23:39:48.847Z,62.77
2016-07-19T23:40:48.869Z,62.8
2016-07-19T23:41:48.887Z,62.57
2016-07-19T23:42:48.917Z,62.38
2016-07-19T23:43:48.940Z,62.7
2016-07-19T23:44:48.955Z,62.48
2016-07-19T23:45:48.976Z,62.8
2016-07-19T23:46:48.997Z,62.51
2016-07-19T23:47:49.737Z,62.9
2016-07-19T23:48:49.042Z,62.6
2016-07-19T23:49:49.062Z,62.67
2016-07-19T23:50:49.085Z,62.48
2016-07-19T23:51:49.820Z,62.6
2016-07-19T23:52:49.126Z,62.6
2016-07-19T23:53:49.150Z,62.67
2016-07-19T23:54:49.167Z,62.67
2016-07-19T23:55:49.190Z,62.48
2016-07-19T23:56:49.223Z,62.7
2016-07-19T23:57:49.950Z,62.38
2016-07-19T23:58:49.250Z,62.6
2016-07-19T23:59:49.275Z,62.67
